createdAt,value
2017-10-24T00:01:37.385Z,14.55
2017-10-24T00:04:04.639Z,14.44
2017-10-24T00:06:31.074Z,14.43
2017-10-24T00:08:57.518Z,14.40
2017-10-24T00:11:23.943Z,14.45
2017-10-24T00:13:50.376Z,14.44
2017-10-24T00:16:16.821Z,14.41
2017-10-24T00:18:43.248Z,14.47
2017-10-24T00:21:10.501Z,14.42
2017-10-24T00:23:36.941Z,14.50
2017-10-24T00:26:03.372Z,14.26
2017-10-24T00:28:29.806Z,13.96
2017-10-24T00:30:56.231Z,13.79
2017-10-24T00:33:22.678Z,13.71
2017-10-24T00:35:49.120Z,13.54
2017-10-24T00:38:16.363Z,13.39
2017-10-24T00:40:42.807Z,13.22
2017-10-24T00:43:09.192Z,13.04
2017-10-24T00:45:35.668Z,12.90
2017-10-24T00:48:02.103Z,12.79
2017-10-24T00:50:28.546Z,12.74
2017-10-24T00:52:54.982Z,12.67
2017-10-24T00:55:22.134Z,12.63
2017-10-24T00:57:48.560Z,12.59
2017-10-24T01:00:14.937Z,12.63
2017-10-24T01:02:41.328Z,12.70
2017-10-24T01:05:07.762Z,12.77
2017-10-24T01:07:34.196Z,12.85
2017-10-24T01:10:00.529Z,12.90
2017-10-24T01:12:27.775Z,12.98
2017-10-24T01:14:54.226Z,13.01
2017-10-24T01:17:20.655Z,13.05
2017-10-24T01:19:47.095Z,13.04
2017-10-24T01:22:13.534Z,13.06
2017-10-24T01:24:39.968Z,13.09
2017-10-24T01:27:06.394Z,13.08
2017-10-24T01:29:33.545Z,13.08
2017-10-24T01:31:59.979Z,13.06
2017-10-24T01:34:26.413Z,13.09
2017-10-24T01:36:52.849Z,13.04
2017-10-24T01:39:19.285Z,13.02
2017-10-24T01:41:45.718Z,13.06
2017-10-24T01:44:12.154Z,13.04
2017-10-24T01:46:39.415Z,13.00
2017-10-24T01:49:05.942Z,12.83
2017-10-24T01:51:32.352Z,12.82
2017-10-24T01:53:58.813Z,12.79
2017-10-24T01:56:25.248Z,12.76
2017-10-24T01:58:51.682Z,12.70
2017-10-24T02:01:18.126Z,12.58
2017-10-24T02:03:45.269Z,12.52
2017-10-24T02:06:11.705Z,12.46
2017-10-24T02:08:38.141Z,12.42
2017-10-24T02:11:04.573Z,12.35
2017-10-24T02:13:31.019Z,12.29
2017-10-24T02:15:57.444Z,12.21
2017-10-24T02:18:23.888Z,12.19
2017-10-24T02:20:51.030Z,12.26
2017-10-24T02:23:17.475Z,12.35
2017-10-24T02:25:43.899Z,12.40
2017-10-24T02:28:10.334Z,12.46
2017-10-24T02:30:36.708Z,12.43
2017-10-24T02:33:03.105Z,12.31
2017-10-24T02:35:29.536Z,12.16
2017-10-24T02:37:56.799Z,12.12
2017-10-24T02:40:23.225Z,12.07
2017-10-24T02:42:49.667Z,12.02
2017-10-24T02:45:16.196Z,11.92
2017-10-24T02:47:42.632Z,11.87
2017-10-24T02:50:09.065Z,11.79
2017-10-24T02:52:35.398Z,11.77
2017-10-24T02:55:02.696Z,11.75
2017-10-24T02:57:29.088Z,11.77
2017-10-24T02:59:55.530Z,11.74
2017-10-24T03:02:21.966Z,11.80
2017-10-24T03:04:48.393Z,11.77
2017-10-24T03:07:14.766Z,11.73
2017-10-24T03:09:41.169Z,11.74
2017-10-24T03:12:08.413Z,11.81
2017-10-24T03:14:34.849Z,11.89
2017-10-24T03:17:01.282Z,11.92
2017-10-24T03:19:27.718Z,11.90
2017-10-24T03:21:54.253Z,11.96
2017-10-24T03:24:20.700Z,11.94
2017-10-24T03:26:47.133Z,11.91
2017-10-24T03:29:14.278Z,11.93
2017-10-24T03:31:40.711Z,12.04
2017-10-24T03:34:07.146Z,12.08
2017-10-24T03:36:33.587Z,12.03
2017-10-24T03:39:00.018Z,12.00
2017-10-24T03:41:26.450Z,11.94
2017-10-24T03:43:52.895Z,11.89
2017-10-24T03:46:20.039Z,11.93
2017-10-24T03:48:46.473Z,11.99
2017-10-24T03:51:12.907Z,12.07
2017-10-24T03:53:39.340Z,12.06
2017-10-24T03:56:05.776Z,12.11
2017-10-24T03:58:32.218Z,12.14
2017-10-24T04:00:58.653Z,12.10
2017-10-24T04:03:25.759Z,12.03
2017-10-24T04:05:52.231Z,11.95
2017-10-24T04:08:18.667Z,11.88
2017-10-24T04:10:45.111Z,11.81
2017-10-24T04:13:11.545Z,11.82
2017-10-24T04:15:37.991Z,11.74
2017-10-24T04:18:04.405Z,11.69
2017-10-24T04:20:31.660Z,11.67
2017-10-24T04:22:58.103Z,11.64
2017-10-24T04:25:24.538Z,11.58
2017-10-24T04:27:50.963Z,11.54
2017-10-24T04:30:17.399Z,11.45
2017-10-24T04:32:43.835Z,11.55
2017-10-24T04:35:10.277Z,11.62
2017-10-24T04:37:37.501Z,11.70
2017-10-24T04:40:03.943Z,11.77
2017-10-24T04:42:30.393Z,11.77
2017-10-24T04:44:56.835Z,11.81
2017-10-24T04:47:23.262Z,11.84
2017-10-24T04:49:49.696Z,11.67
2017-10-24T04:52:16.131Z,11.60
2017-10-24T04:54:43.496Z,11.63
2017-10-24T04:57:09.963Z,11.66
2017-10-24T04:59:36.468Z,11.67
2017-10-24T05:02:02.998Z,11.62
2017-10-24T05:04:29.816Z,11.64
2017-10-24T05:06:56.258Z,11.65
2017-10-24T05:09:22.716Z,11.69
2017-10-24T05:11:49.256Z,11.73
2017-10-24T05:14:15.692Z,11.82
2017-10-24T05:16:42.322Z,11.87
2017-10-24T05:19:08.926Z,11.93
2017-10-24T05:21:35.337Z,11.85
2017-10-24T05:24:01.806Z,11.79
2017-10-24T05:26:28.277Z,11.95
2017-10-24T05:28:55.316Z,12.03
2017-10-24T05:31:21.759Z,12.07
2017-10-24T05:33:48.191Z,12.09
2017-10-24T05:36:14.634Z,12.14
2017-10-24T05:38:41.069Z,12.13
2017-10-24T05:41:07.489Z,12.09
2017-10-24T05:43:33.928Z,12.14
2017-10-24T05:46:00.370Z,12.16
2017-10-24T05:48:26.795Z,12.18
2017-10-24T05:50:53.332Z,12.31
2017-10-24T05:53:19.773Z,12.42
2017-10-24T05:55:46.307Z,12.56
2017-10-24T05:58:12.946Z,12.72
2017-10-24T06:00:41.242Z,12.80
2017-10-24T06:03:07.861Z,12.86
2017-10-24T06:05:34.751Z,12.85
2017-10-24T06:08:01.353Z,12.92
2017-10-24T06:10:27.894Z,12.95
2017-10-24T06:12:54.829Z,12.94
2017-10-24T06:15:21.370Z,13.01
2017-10-24T06:17:47.903Z,13.17
2017-10-24T06:20:14.346Z,13.26
2017-10-24T06:22:41.192Z,13.33
2017-10-24T06:25:07.586Z,13.39
2017-10-24T06:27:34.056Z,13.43
2017-10-24T06:30:00.597Z,13.43
2017-10-24T06:32:27.228Z,13.44
2017-10-24T06:34:53.673Z,13.52
2017-10-24T06:37:20.099Z,13.66
2017-10-24T06:39:46.533Z,13.75
2017-10-24T06:42:13.134Z,13.72
2017-10-24T06:44:40.667Z,13.67
2017-10-24T06:47:07.178Z,13.81
2017-10-24T06:49:33.607Z,13.97
2017-10-24T06:52:00.012Z,14.14
2017-10-24T06:54:26.481Z,14.08
2017-10-24T06:56:53.559Z,13.94
2017-10-24T06:59:20.030Z,13.87
2017-10-24T07:01:46.506Z,13.87
2017-10-24T07:04:13.224Z,13.85
2017-10-24T07:06:40.269Z,13.84
2017-10-24T07:09:07.437Z,13.80
2017-10-24T07:11:34.552Z,13.77
2017-10-24T07:14:01.620Z,13.72
2017-10-24T07:16:28.769Z,13.65
2017-10-24T07:18:55.941Z,13.62
2017-10-24T07:21:23.093Z,13.69
2017-10-24T07:23:50.325Z,13.80
2017-10-24T07:26:17.303Z,14.04
2017-10-24T07:28:44.344Z,14.17
2017-10-24T07:31:11.495Z,14.25
2017-10-24T07:33:39.265Z,14.24
2017-10-24T07:36:06.309Z,14.29
2017-10-24T07:38:34.274Z,14.25
2017-10-24T07:41:01.536Z,14.17
2017-10-24T07:43:28.819Z,14.16
2017-10-24T07:45:55.940Z,14.22
2017-10-24T07:48:23.000Z,14.25
2017-10-24T07:50:50.039Z,14.34
2017-10-24T07:53:17.301Z,14.42
2017-10-24T07:55:44.310Z,14.43
2017-10-24T07:58:11.569Z,14.41
2017-10-24T08:00:38.646Z,14.43
2017-10-24T08:03:05.901Z,14.54
2017-10-24T08:05:33.461Z,14.67
2017-10-24T08:08:00.518Z,14.80
2017-10-24T08:10:27.056Z,14.90
2017-10-24T08:12:53.916Z,14.96
2017-10-24T08:15:20.672Z,15.01
2017-10-24T08:17:47.067Z,15.05
2017-10-24T08:20:13.614Z,15.03
2017-10-24T08:22:40.151Z,15.04
2017-10-24T08:25:06.689Z,15.02
2017-10-24T08:27:33.218Z,15.04
2017-10-24T08:30:00.063Z,15.05
2017-10-24T08:32:28.024Z,15.07
2017-10-24T08:34:54.475Z,15.07
2017-10-24T08:37:20.902Z,15.01
2017-10-24T08:39:47.849Z,14.96
2017-10-24T08:42:14.592Z,14.88
2017-10-24T08:44:41.826Z,14.82
2017-10-24T08:47:08.679Z,14.84
2017-10-24T08:49:35.132Z,14.80
2017-10-24T08:52:01.874Z,14.82
2017-10-24T08:54:29.022Z,15.04
2017-10-24T08:56:55.563Z,15.45
2017-10-24T08:59:22.083Z,15.84
2017-10-24T09:01:48.936Z,15.93
2017-10-24T09:04:15.466Z,15.86
2017-10-24T09:06:42.019Z,15.85
2017-10-24T09:09:08.714Z,15.91
2017-10-24T09:11:35.197Z,15.94
2017-10-24T09:14:01.735Z,15.92
2017-10-24T09:16:28.569Z,15.84
2017-10-24T09:18:55.004Z,15.63
2017-10-24T09:21:21.864Z,15.36
2017-10-24T09:23:48.384Z,15.21
2017-10-24T09:26:15.226Z,15.28
2017-10-24T09:28:41.675Z,15.44
2017-10-24T09:31:08.203Z,15.49
2017-10-24T09:33:34.871Z,15.60
2017-10-24T09:36:01.378Z,15.78
2017-10-24T09:38:27.774Z,16.09
2017-10-24T09:40:54.247Z,16.45
2017-10-24T09:43:20.989Z,16.51
2017-10-24T09:45:47.424Z,16.62
2017-10-24T09:48:13.859Z,16.88
2017-10-24T09:50:40.304Z,16.91
2017-10-24T09:53:06.934Z,16.79
2017-10-24T09:55:33.360Z,16.86
2017-10-24T09:58:00.126Z,16.93
2017-10-24T10:00:26.862Z,16.72
2017-10-24T10:02:53.517Z,16.51
2017-10-24T10:05:20.029Z,16.22
2017-10-24T10:07:47.022Z,16.19
2017-10-24T10:10:13.523Z,16.29
2017-10-24T10:12:40.051Z,16.44
2017-10-24T10:15:06.895Z,16.57
2017-10-24T10:17:33.391Z,16.44
2017-10-24T10:20:00.993Z,16.13
2017-10-24T10:22:27.645Z,15.77
2017-10-24T10:24:54.581Z,15.55
2017-10-24T10:27:21.119Z,15.38
2017-10-24T10:29:47.709Z,15.34
2017-10-24T10:32:14.599Z,15.24
2017-10-24T10:34:41.036Z,15.16
2017-10-24T10:37:11.192Z,15.20
2017-10-24T10:39:42.432Z,15.37
2017-10-24T10:42:08.943Z,15.49
2017-10-24T10:44:35.910Z,15.24
2017-10-24T10:47:02.741Z,15.09
2017-10-24T10:49:29.274Z,14.93
2017-10-24T10:51:56.025Z,14.77
2017-10-24T10:54:23.071Z,14.75
2017-10-24T10:56:49.772Z,14.67
2017-10-24T10:59:16.239Z,14.55
2017-10-24T11:01:42.650Z,14.40
2017-10-24T11:04:09.747Z,14.37
2017-10-24T11:06:36.273Z,14.30
2017-10-24T11:09:02.797Z,14.38
2017-10-24T11:11:29.949Z,14.30
2017-10-24T11:13:56.486Z,14.32
2017-10-24T11:16:23.637Z,14.33
2017-10-24T11:18:51.199Z,14.43
2017-10-24T11:21:17.744Z,14.56
2017-10-24T11:23:44.269Z,14.63
2017-10-24T11:26:11.321Z,14.72
2017-10-24T11:28:37.858Z,14.88
2017-10-24T11:31:04.671Z,14.95
2017-10-24T11:33:31.259Z,14.79
2017-10-24T11:35:57.778Z,14.78
2017-10-24T11:38:24.417Z,14.80
2017-10-24T11:40:51.008Z,14.53
2017-10-24T11:43:17.594Z,14.33
2017-10-24T11:45:44.032Z,14.33
2017-10-24T11:48:10.679Z,14.30
2017-10-24T11:50:37.209Z,14.27
2017-10-24T11:53:03.782Z,14.26
2017-10-24T11:55:30.903Z,14.10
2017-10-24T11:57:57.331Z,14.18
2017-10-24T12:00:23.875Z,14.27
2017-10-24T12:02:50.406Z,14.24
2017-10-24T12:05:17.350Z,14.09
2017-10-24T12:07:43.789Z,14.10
2017-10-24T12:10:10.328Z,14.22
2017-10-24T12:12:37.442Z,14.28
2017-10-24T12:15:06.070Z,14.30
2017-10-24T12:17:33.755Z,14.30
2017-10-24T12:20:00.772Z,14.22
2017-10-24T12:22:28.360Z,14.17
2017-10-24T12:24:55.691Z,14.22
2017-10-24T12:27:23.157Z,14.26
2017-10-24T12:29:50.104Z,14.21
2017-10-24T12:32:17.350Z,14.25
2017-10-24T12:34:44.749Z,14.22
2017-10-24T12:37:11.661Z,14.11
2017-10-24T12:39:38.088Z,14.07
2017-10-24T12:42:06.914Z,14.03
2017-10-24T12:44:33.526Z,14.06
2017-10-24T12:47:00.265Z,14.15
2017-10-24T12:49:26.695Z,14.15
2017-10-24T12:51:53.391Z,14.03
2017-10-24T12:54:19.879Z,14.05
2017-10-24T12:56:46.825Z,14.05
2017-10-24T12:59:14.075Z,14.04
2017-10-24T13:01:41.029Z,14.07
2017-10-24T13:04:07.761Z,14.00
2017-10-24T13:06:34.307Z,14.05
2017-10-24T13:09:00.835Z,14.05
2017-10-24T13:11:27.833Z,14.08
2017-10-24T13:13:54.523Z,14.18
2017-10-24T13:16:21.172Z,14.26
2017-10-24T13:18:48.107Z,14.29
2017-10-24T13:21:15.281Z,14.27
2017-10-24T13:23:41.814Z,14.24
2017-10-24T13:26:09.266Z,14.22
2017-10-24T13:28:35.796Z,14.19
2017-10-24T13:31:02.230Z,14.08
2017-10-24T13:33:28.972Z,14.04
2017-10-24T13:35:55.621Z,14.08
2017-10-24T13:38:22.829Z,14.08
2017-10-24T13:40:49.812Z,14.01
2017-10-24T13:43:16.600Z,13.96
2017-10-24T13:45:43.133Z,13.88
2017-10-24T13:48:09.616Z,13.90
2017-10-24T13:50:36.055Z,13.86
2017-10-24T13:53:03.011Z,13.91
2017-10-24T13:55:29.761Z,14.05
2017-10-24T13:57:56.187Z,14.10
2017-10-24T14:00:23.032Z,14.04
2017-10-24T14:02:49.672Z,14.06
2017-10-24T14:05:16.217Z,14.09
2017-10-24T14:07:42.602Z,14.03
2017-10-24T14:10:09.073Z,14.02
2017-10-24T14:12:37.081Z,14.06
2017-10-24T14:15:03.688Z,14.06
2017-10-24T14:17:30.381Z,14.14
2017-10-24T14:19:57.385Z,14.18
2017-10-24T14:22:24.986Z,14.22
2017-10-24T14:24:51.678Z,14.25
2017-10-24T14:27:18.841Z,14.32
2017-10-24T14:29:46.024Z,14.36
2017-10-24T14:32:12.829Z,14.41
2017-10-24T14:34:39.618Z,14.41
2017-10-24T14:37:06.106Z,14.35
2017-10-24T14:39:32.798Z,14.32
2017-10-24T14:41:59.489Z,14.35
2017-10-24T14:44:26.608Z,14.27
2017-10-24T14:46:53.488Z,14.32
2017-10-24T14:49:20.026Z,14.33
2017-10-24T14:51:47.891Z,14.25
2017-10-24T14:54:14.569Z,14.21
2017-10-24T14:56:41.797Z,14.13
2017-10-24T14:59:08.638Z,14.14
2017-10-24T15:01:35.584Z,14.06
2017-10-24T15:04:02.214Z,14.01
2017-10-24T15:06:28.965Z,14.00
2017-10-24T15:08:55.596Z,13.95
2017-10-24T15:11:22.291Z,13.92
2017-10-24T15:13:49.182Z,13.79
2017-10-24T15:16:15.889Z,13.69
2017-10-24T15:18:42.880Z,13.63
2017-10-24T15:21:10.025Z,13.65
2017-10-24T15:23:37.187Z,13.62
2017-10-24T15:26:04.163Z,13.54
2017-10-24T15:28:30.863Z,13.60
2017-10-24T15:30:57.836Z,13.63
2017-10-24T15:33:24.971Z,13.59
2017-10-24T15:35:52.389Z,13.58
2017-10-24T15:38:19.336Z,13.58
2017-10-24T15:40:46.379Z,13.58
2017-10-24T15:43:13.367Z,13.57
2017-10-24T15:45:40.620Z,13.55
2017-10-24T15:48:07.728Z,13.62
2017-10-24T15:50:34.674Z,13.64
2017-10-24T15:53:01.727Z,13.63
2017-10-24T15:55:29.282Z,13.63
2017-10-24T15:57:56.384Z,13.64
2017-10-24T16:00:24.764Z,13.67
2017-10-24T16:02:51.882Z,13.58
2017-10-24T16:05:18.957Z,13.55
2017-10-24T16:07:47.132Z,13.50
2017-10-24T16:10:14.394Z,13.52
2017-10-24T16:12:41.546Z,13.49
2017-10-24T16:15:08.688Z,13.49
2017-10-24T16:17:35.954Z,13.50
2017-10-24T16:20:02.960Z,13.43
2017-10-24T16:22:30.050Z,13.48
2017-10-24T16:24:56.895Z,13.46
2017-10-24T16:27:23.322Z,13.43
2017-10-24T16:32:11.481Z,13.35
2017-10-24T16:34:37.915Z,13.25
2017-10-24T16:37:04.556Z,13.26
2017-10-24T16:39:30.989Z,13.25
2017-10-24T16:41:57.432Z,13.19
2017-10-24T16:44:23.858Z,13.23
2017-10-24T16:46:50.302Z,13.26
2017-10-24T16:49:17.045Z,13.25
2017-10-24T16:51:43.479Z,13.30
2017-10-24T16:54:09.905Z,13.23
2017-10-24T16:56:36.339Z,13.26
2017-10-24T16:59:02.775Z,13.19
2017-10-24T17:01:29.213Z,13.16
2017-10-24T17:03:55.746Z,13.21
2017-10-24T17:06:22.188Z,13.20
2017-10-24T17:08:49.138Z,13.21
2017-10-24T17:11:15.563Z,13.20
2017-10-24T17:13:42.006Z,13.19
2017-10-24T17:16:08.433Z,13.22
2017-10-24T17:18:34.867Z,13.24
2017-10-24T17:21:01.409Z,13.29
2017-10-24T17:23:27.848Z,13.34
2017-10-24T17:25:54.273Z,13.37
2017-10-24T17:31:39.573Z,13.25
2017-10-24T17:34:05.992Z,13.19
2017-10-24T17:36:32.443Z,13.20
2017-10-24T17:38:58.886Z,13.16
2017-10-24T17:41:25.210Z,13.16
2017-10-24T17:43:51.747Z,13.20
2017-10-24T17:46:18.191Z,13.18
2017-10-24T17:48:44.556Z,13.21
2017-10-24T17:51:10.949Z,13.17
2017-10-24T17:53:37.384Z,13.24
2017-10-24T17:56:03.819Z,13.29
2017-10-24T17:58:30.257Z,13.33
2017-10-24T18:00:56.690Z,13.37
2017-10-24T18:03:23.124Z,13.35
2017-10-24T18:05:49.567Z,13.31
2017-10-24T18:08:16.001Z,13.25
2017-10-24T18:10:42.451Z,13.27
2017-10-24T18:13:08.845Z,13.19
2017-10-24T18:15:35.311Z,13.12
2017-10-24T18:18:02.450Z,13.04
2017-10-24T18:20:28.892Z,12.96
2017-10-24T18:22:55.328Z,12.90
2017-10-24T18:25:21.764Z,12.93
2017-10-24T18:27:48.197Z,12.91
2017-10-24T18:30:14.595Z,12.92
2017-10-24T18:32:41.068Z,12.94
2017-10-24T18:35:07.493Z,12.93
2017-10-24T18:37:33.928Z,12.83
2017-10-24T18:40:01.196Z,12.91
2017-10-24T18:42:27.718Z,12.90
2017-10-24T18:44:54.153Z,12.86
2017-10-24T18:47:20.524Z,12.87
2017-10-24T18:49:47.032Z,12.85
2017-10-24T18:52:13.459Z,12.87
2017-10-24T18:54:39.892Z,12.89
2017-10-24T18:57:06.328Z,12.95
2017-10-24T18:59:32.771Z,12.98
2017-10-24T19:01:59.299Z,13.03
2017-10-24T19:04:25.743Z,13.08
2017-10-24T19:06:52.177Z,13.11
2017-10-24T19:09:18.540Z,13.14
2017-10-24T19:11:44.886Z,13.06
2017-10-24T19:14:11.378Z,13.06
2017-10-24T19:16:37.805Z,13.00
2017-10-24T19:19:04.213Z,12.90
2017-10-24T19:21:30.837Z,12.75
2017-10-24T19:23:57.314Z,12.71
2017-10-24T19:26:23.757Z,12.62
2017-10-24T19:28:50.183Z,12.69
2017-10-24T19:31:16.619Z,12.55
2017-10-24T19:33:43.063Z,12.53
2017-10-24T19:36:11.842Z,12.57
2017-10-24T19:41:43.217Z,12.35
2017-10-24T19:44:12.378Z,12.36
2017-10-24T19:46:38.825Z,12.33
2017-10-24T19:49:05.277Z,12.22
2017-10-24T19:51:31.720Z,12.15
2017-10-24T19:53:58.165Z,12.06
2017-10-24T19:56:24.535Z,12.02
2017-10-24T19:58:51.029Z,11.97
2017-10-24T20:01:18.723Z,11.92
2017-10-24T20:03:45.126Z,12.00
2017-10-24T20:06:14.636Z,12.15
2017-10-24T20:08:41.068Z,12.04
2017-10-24T20:11:07.502Z,11.92
2017-10-24T20:13:34.763Z,11.89
2017-10-24T20:16:01.190Z,11.94
2017-10-24T20:18:27.702Z,11.89
2017-10-24T20:20:54.152Z,11.90
2017-10-24T20:23:20.595Z,11.86
2017-10-24T20:25:47.038Z,11.86
2017-10-24T20:28:13.473Z,11.89
2017-10-24T20:30:39.903Z,11.89
2017-10-24T20:33:06.334Z,11.83
2017-10-24T20:35:32.771Z,11.86
2017-10-24T20:37:59.202Z,11.81
2017-10-24T20:40:25.638Z,11.76
2017-10-24T20:42:52.084Z,11.78
2017-10-24T20:45:18.503Z,11.67
2017-10-24T20:47:44.943Z,11.75
2017-10-24T20:50:11.385Z,11.74
2017-10-24T20:52:37.896Z,11.78
2017-10-24T20:55:04.344Z,11.80
2017-10-24T20:57:30.785Z,11.70
2017-10-24T20:59:57.218Z,11.60
2017-10-24T21:02:23.653Z,11.58
2017-10-24T21:04:50.089Z,11.61
2017-10-24T21:07:16.492Z,11.59
2017-10-24T21:09:43.368Z,11.56
2017-10-24T21:12:09.804Z,11.57
2017-10-24T21:14:36.246Z,11.53
2017-10-24T21:17:02.672Z,11.51
2017-10-24T21:19:29.107Z,11.54
2017-10-24T21:21:55.545Z,11.42
2017-10-24T21:24:21.977Z,11.47
2017-10-24T21:26:48.411Z,11.47
2017-10-24T21:29:14.855Z,11.47
2017-10-24T21:31:41.177Z,11.36
2017-10-24T21:34:07.616Z,11.48
2017-10-24T21:36:34.056Z,11.30
2017-10-24T21:39:00.512Z,11.26
2017-10-24T21:41:26.923Z,11.24
2017-10-24T21:43:53.481Z,11.20
2017-10-24T21:46:19.889Z,11.21
2017-10-24T21:48:46.326Z,11.16
2017-10-24T21:51:12.758Z,11.17
2017-10-24T21:53:39.193Z,11.28
2017-10-24T21:56:05.628Z,11.34
2017-10-24T21:58:32.063Z,11.25
2017-10-24T22:00:58.498Z,11.23
2017-10-24T22:03:24.933Z,11.25
2017-10-24T22:05:51.367Z,11.21
2017-10-24T22:08:17.904Z,11.22
2017-10-24T22:10:44.345Z,11.19
2017-10-24T22:13:10.774Z,11.15
2017-10-24T22:15:37.215Z,11.10
2017-10-24T22:18:03.624Z,11.19
2017-10-24T22:20:30.074Z,11.20
2017-10-24T22:22:56.514Z,11.22
2017-10-24T22:25:22.954Z,11.25
2017-10-24T22:27:49.383Z,11.36
2017-10-24T22:30:16.637Z,11.29
2017-10-24T22:32:43.080Z,11.28
2017-10-24T22:35:09.514Z,11.30
2017-10-24T22:37:35.941Z,11.37
2017-10-24T22:40:02.384Z,11.28
2017-10-24T22:42:28.831Z,11.16
2017-10-24T22:44:55.194Z,11.14
2017-10-24T22:47:21.689Z,11.26
2017-10-24T22:49:48.106Z,11.18
2017-10-24T22:52:14.520Z,11.08
2017-10-24T22:54:40.985Z,11.10
2017-10-24T22:57:07.428Z,11.16
2017-10-24T22:59:33.865Z,11.20
2017-10-24T23:02:00.299Z,10.98
2017-10-24T23:04:26.723Z,10.97
2017-10-24T23:06:53.159Z,10.88
2017-10-24T23:09:19.700Z,10.86
2017-10-24T23:11:46.129Z,10.94
2017-10-24T23:14:12.499Z,10.93
2017-10-24T23:16:38.838Z,10.88
2017-10-24T23:19:05.338Z,10.93
2017-10-24T23:21:31.767Z,10.91
2017-10-24T23:23:58.204Z,10.91
2017-10-24T23:26:24.637Z,10.91
2017-10-24T23:28:51.071Z,10.93
2017-10-24T23:31:17.617Z,11.02
2017-10-24T23:33:44.043Z,10.99
2017-10-24T23:36:10.480Z,10.83
2017-10-24T23:38:36.912Z,10.78
2017-10-24T23:41:03.355Z,10.80
2017-10-24T23:43:29.884Z,10.86
2017-10-24T23:45:56.332Z,10.78
2017-10-24T23:48:22.753Z,10.68
2017-10-24T23:50:49.189Z,10.83
2017-10-24T23:53:15.631Z,10.84
2017-10-24T23:55:42.064Z,10.85
2017-10-24T23:58:08.459Z,10.86
